sensor_id;sensor_type;location;lat;lon;timestamp;temperature;humidity
11894;DHT22;6006;49.696;8.662;2023-10-08T00:02:06;14.70;88.90
11894;DHT22;6006;49.696;8.662;2023-10-08T00:04:35;14.80;1.00
11894;DHT22;6006;49.696;8.662;2023-10-08T00:07:03;14.80;1.00
11894;DHT22;6006;49.696;8.662;2023-10-08T00:09:33;14.70;1.00
11894;DHT22;6006;49.696;8.662;2023-10-08T00:12:03;14.60;32.30
11894;DHT22;6006;49.696;8.662;2023-10-08T00:14:29;14.50;82.40
11894;DHT22;6006;49.696;8.662;2023-10-08T00:16:58;14.50;99.90
11894;DHT22;6006;49.696;8.662;2023-10-08T00:19:27;14.40;99.90
11894;DHT22;6006;49.696;8.662;2023-10-08T00:22:00;14.30;99.90
11894;DHT22;6006;49.696;8.662;2023-10-08T00:24:32;14.20;99.90
11894;DHT22;6006;49.696;8.662;2023-10-08T00:26:59;14.20;99.90
11894;DHT22;6006;49.696;8.662;2023-10-08T00:29:25;14.20;99.90
11894;DHT22;6006;49.696;8.662;2023-10-08T00:31:56;14.20;99.90
11894;DHT22;6006;49.696;8.662;2023-10-08T00:34:24;14.10;99.90
11894;DHT22;6006;49.696;8.662;2023-10-08T00:36:54;14.10;99.90
11894;DHT22;6006;49.696;8.662;2023-10-08T00:39:21;14.10;99.90
11894;DHT22;6006;49.696;8.662;2023-10-08T00:41:53;14.00;99.90
11894;DHT22;6006;49.696;8.662;2023-10-08T00:44:24;14.00;99.90
11894;DHT22;6006;49.696;8.662;2023-10-08T00:46:56;14.00;99.90
11894;DHT22;6006;49.696;8.662;2023-10-08T00:49:27;13.90;99.90
11894;DHT22;6006;49.696;8.662;2023-10-08T00:52:15;13.90;99.90
11894;DHT22;6006;49.696;8.662;2023-10-08T00:54:55;13.80;99.90
11894;DHT22;6006;49.696;8.662;2023-10-08T00:57:33;13.80;99.90
11894;DHT22;6006;49.696;8.662;2023-10-08T01:00:02;13.70;99.90
11894;DHT22;6006;49.696;8.662;2023-10-08T01:02:32;13.70;99.90
11894;DHT22;6006;49.696;8.662;2023-10-08T01:05:12;13.70;99.90
11894;DHT22;6006;49.696;8.662;2023-10-08T01:07:42;13.70;99.90
11894;DHT22;6006;49.696;8.662;2023-10-08T01:10:11;13.70;99.90
11894;DHT22;6006;49.696;8.662;2023-10-08T01:12:44;13.70;99.90
11894;DHT22;6006;49.696;8.662;2023-10-08T01:15:32;13.70;99.90
11894;DHT22;6006;49.696;8.662;2023-10-08T01:18:01;13.70;99.90
11894;DHT22;6006;49.696;8.662;2023-10-08T01:20:30;13.70;99.90
11894;DHT22;6006;49.696;8.662;2023-10-08T01:23:04;13.70;99.90
11894;DHT22;6006;49.696;8.662;2023-10-08T01:25:36;13.60;99.90
11894;DHT22;6006;49.696;8.662;2023-10-08T01:28:04;13.60;99.90
11894;DHT22;6006;49.696;8.662;2023-10-08T01:30:35;13.60;99.90
11894;DHT22;6006;49.696;8.662;2023-10-08T01:33:07;13.60;99.90
11894;DHT22;6006;49.696;8.662;2023-10-08T01:35:39;13.50;99.90
11894;DHT22;6006;49.696;8.662;2023-10-08T01:38:07;13.50;99.90
11894;DHT22;6006;49.696;8.662;2023-10-08T01:40:39;13.50;99.90
11894;DHT22;6006;49.696;8.662;2023-10-08T01:43:06;13.50;99.90
11894;DHT22;6006;49.696;8.662;2023-10-08T01:45:36;13.40;99.90
11894;DHT22;6006;49.696;8.662;2023-10-08T01:48:06;13.40;99.90
11894;DHT22;6006;49.696;8.662;2023-10-08T01:50:35;13.40;99.90
11894;DHT22;6006;49.696;8.662;2023-10-08T01:53:02;13.40;99.90
11894;DHT22;6006;49.696;8.662;2023-10-08T01:55:32;13.30;99.90
11894;DHT22;6006;49.696;8.662;2023-10-08T01:58:13;13.30;99.90
11894;DHT22;6006;49.696;8.662;2023-10-08T02:00:42;13.30;99.90
11894;DHT22;6006;49.696;8.662;2023-10-08T02:03:11;13.40;99.90
11894;DHT22;6006;49.696;8.662;2023-10-08T02:05:39;13.40;99.90
11894;DHT22;6006;49.696;8.662;2023-10-08T02:08:08;13.40;99.90
11894;DHT22;6006;49.696;8.662;2023-10-08T02:10:37;13.40;99.90
11894;DHT22;6006;49.696;8.662;2023-10-08T02:13:05;13.30;99.90
11894;DHT22;6006;49.696;8.662;2023-10-08T02:15:34;13.30;99.90
11894;DHT22;6006;49.696;8.662;2023-10-08T02:18:02;13.20;99.90
11894;DHT22;6006;49.696;8.662;2023-10-08T02:20:29;13.10;99.90
11894;DHT22;6006;49.696;8.662;2023-10-08T02:22:56;13.10;99.90
11894;DHT22;6006;49.696;8.662;2023-10-08T02:25:22;13.00;99.90
11894;DHT22;6006;49.696;8.662;2023-10-08T02:27:51;12.90;99.90
11894;DHT22;6006;49.696;8.662;2023-10-08T02:30:20;12.90;99.90
11894;DHT22;6006;49.696;8.662;2023-10-08T02:32:47;12.70;99.90
11894;DHT22;6006;49.696;8.662;2023-10-08T02:35:15;12.70;99.90
11894;DHT22;6006;49.696;8.662;2023-10-08T02:37:42;12.60;99.90
11894;DHT22;6006;49.696;8.662;2023-10-08T02:40:11;12.50;99.90
11894;DHT22;6006;49.696;8.662;2023-10-08T02:42:45;12.40;99.90
11894;DHT22;6006;49.696;8.662;2023-10-08T02:45:14;12.40;99.90
11894;DHT22;6006;49.696;8.662;2023-10-08T02:47:43;12.40;99.90
11894;DHT22;6006;49.696;8.662;2023-10-08T02:50:11;12.40;99.90
11894;DHT22;6006;49.696;8.662;2023-10-08T02:52:42;12.40;99.90
11894;DHT22;6006;49.696;8.662;2023-10-08T02:55:11;12.30;99.90
11894;DHT22;6006;49.696;8.662;2023-10-08T02:57:51;12.30;99.90
11894;DHT22;6006;49.696;8.662;2023-10-08T03:00:19;12.20;99.90
11894;DHT22;6006;49.696;8.662;2023-10-08T03:02:46;12.20;99.90
11894;DHT22;6006;49.696;8.662;2023-10-08T03:05:13;12.20;99.90
11894;DHT22;6006;49.696;8.662;2023-10-08T03:07:43;12.10;99.90
11894;DHT22;6006;49.696;8.662;2023-10-08T03:10:10;12.10;99.90
11894;DHT22;6006;49.696;8.662;2023-10-08T03:12:44;12.10;99.90
11894;DHT22;6006;49.696;8.662;2023-10-08T03:15:12;12.10;99.90
11894;DHT22;6006;49.696;8.662;2023-10-08T03:17:54;12.00;99.90
11894;DHT22;6006;49.696;8.662;2023-10-08T03:20:23;11.90;99.90
11894;DHT22;6006;49.696;8.662;2023-10-08T03:23:04;11.80;99.90
11894;DHT22;6006;49.696;8.662;2023-10-08T03:25:38;11.80;99.90
11894;DHT22;6006;49.696;8.662;2023-10-08T03:28:07;11.70;99.90
11894;DHT22;6006;49.696;8.662;2023-10-08T03:30:38;11.70;99.90
11894;DHT22;6006;49.696;8.662;2023-10-08T03:33:15;11.70;99.90
11894;DHT22;6006;49.696;8.662;2023-10-08T03:35:50;11.60;99.90
11894;DHT22;6006;49.696;8.662;2023-10-08T03:38:20;11.60;99.90
11894;DHT22;6006;49.696;8.662;2023-10-08T03:40:54;11.50;99.90
11894;DHT22;6006;49.696;8.662;2023-10-08T03:43:29;11.50;99.90
11894;DHT22;6006;49.696;8.662;2023-10-08T03:46:08;11.50;99.90
11894;DHT22;6006;49.696;8.662;2023-10-08T03:48:42;11.40;99.90
11894;DHT22;6006;49.696;8.662;2023-10-08T03:51:11;11.40;99.90
11894;DHT22;6006;49.696;8.662;2023-10-08T03:53:38;11.40;99.90
11894;DHT22;6006;49.696;8.662;2023-10-08T03:56:24;11.40;99.90
11894;DHT22;6006;49.696;8.662;2023-10-08T03:58:51;11.40;99.90
11894;DHT22;6006;49.696;8.662;2023-10-08T04:01:21;11.30;99.90
11894;DHT22;6006;49.696;8.662;2023-10-08T04:03:50;11.30;99.90
11894;DHT22;6006;49.696;8.662;2023-10-08T04:06:34;11.30;99.90
11894;DHT22;6006;49.696;8.662;2023-10-08T04:09:04;11.30;99.90
11894;DHT22;6006;49.696;8.662;2023-10-08T04:11:45;11.30;99.90
11894;DHT22;6006;49.696;8.662;2023-10-08T04:14:19;11.30;99.90
11894;DHT22;6006;49.696;8.662;2023-10-08T04:16:47;11.30;99.90
11894;DHT22;6006;49.696;8.662;2023-10-08T04:19:18;11.30;99.90
11894;DHT22;6006;49.696;8.662;2023-10-08T04:21:46;11.20;99.90
11894;DHT22;6006;49.696;8.662;2023-10-08T04:24:20;11.20;99.90
11894;DHT22;6006;49.696;8.662;2023-10-08T04:26:54;11.20;99.90
11894;DHT22;6006;49.696;8.662;2023-10-08T04:29:22;11.20;99.90
11894;DHT22;6006;49.696;8.662;2023-10-08T04:31:49;11.20;99.90
11894;DHT22;6006;49.696;8.662;2023-10-08T04:34:28;11.20;99.90
11894;DHT22;6006;49.696;8.662;2023-10-08T04:36:55;11.20;99.90
11894;DHT22;6006;49.696;8.662;2023-10-08T04:39:26;11.20;99.90
11894;DHT22;6006;49.696;8.662;2023-10-08T04:41:57;11.30;99.90
11894;DHT22;6006;49.696;8.662;2023-10-08T04:44:31;11.20;99.90
11894;DHT22;6006;49.696;8.662;2023-10-08T04:46:59;11.20;99.90
11894;DHT22;6006;49.696;8.662;2023-10-08T04:49:32;11.20;99.90
11894;DHT22;6006;49.696;8.662;2023-10-08T04:52:00;11.20;99.90
11894;DHT22;6006;49.696;8.662;2023-10-08T04:54:31;11.20;99.90
11894;DHT22;6006;49.696;8.662;2023-10-08T04:56:59;11.20;99.90
11894;DHT22;6006;49.696;8.662;2023-10-08T04:59:27;11.20;99.90
11894;DHT22;6006;49.696;8.662;2023-10-08T05:02:00;11.30;99.90
11894;DHT22;6006;49.696;8.662;2023-10-08T05:04:47;11.30;99.90
11894;DHT22;6006;49.696;8.662;2023-10-08T05:07:32;11.30;99.90
11894;DHT22;6006;49.696;8.662;2023-10-08T05:10:22;11.30;99.90
11894;DHT22;6006;49.696;8.662;2023-10-08T05:13:12;11.30;99.90
11894;DHT22;6006;49.696;8.662;2023-10-08T05:15:42;11.30;99.90
11894;DHT22;6006;49.696;8.662;2023-10-08T05:18:27;11.40;99.90
11894;DHT22;6006;49.696;8.662;2023-10-08T05:21:16;11.40;99.90
11894;DHT22;6006;49.696;8.662;2023-10-08T05:23:51;11.40;99.90
11894;DHT22;6006;49.696;8.662;2023-10-08T05:26:38;11.40;99.90
11894;DHT22;6006;49.696;8.662;2023-10-08T05:29:08;11.40;99.90
11894;DHT22;6006;49.696;8.662;2023-10-08T05:31:53;11.40;99.90
11894;DHT22;6006;49.696;8.662;2023-10-08T05:34:40;11.40;99.90
11894;DHT22;6006;49.696;8.662;2023-10-08T05:37:17;11.50;99.90
11894;DHT22;6006;49.696;8.662;2023-10-08T05:39:59;11.50;99.90
11894;DHT22;6006;49.696;8.662;2023-10-08T05:42:46;11.50;99.90
11894;DHT22;6006;49.696;8.662;2023-10-08T05:45:15;11.50;99.90
11894;DHT22;6006;49.696;8.662;2023-10-08T05:47:55;11.50;99.90
11894;DHT22;6006;49.696;8.662;2023-10-08T05:50:38;11.50;99.90
11894;DHT22;6006;49.696;8.662;2023-10-08T05:53:09;11.50;99.90
11894;DHT22;6006;49.696;8.662;2023-10-08T05:55:55;11.50;99.90
11894;DHT22;6006;49.696;8.662;2023-10-08T05:58:42;11.50;99.90
11894;DHT22;6006;49.696;8.662;2023-10-08T06:01:11;11.60;99.90
11894;DHT22;6006;49.696;8.662;2023-10-08T06:03:52;11.60;99.90
11894;DHT22;6006;49.696;8.662;2023-10-08T06:06:26;11.60;99.90
11894;DHT22;6006;49.696;8.662;2023-10-08T06:09:05;11.70;99.90
11894;DHT22;6006;49.696;8.662;2023-10-08T06:12:00;11.70;99.90
11894;DHT22;6006;49.696;8.662;2023-10-08T06:14:36;11.70;99.90
11894;DHT22;6006;49.696;8.662;2023-10-08T06:17:19;11.80;99.90
11894;DHT22;6006;49.696;8.662;2023-10-08T06:20:20;11.80;99.90
11894;DHT22;6006;49.696;8.662;2023-10-08T06:22:51;11.90;99.90
11894;DHT22;6006;49.696;8.662;2023-10-08T06:25:26;11.90;99.90
11894;DHT22;6006;49.696;8.662;2023-10-08T06:27:53;11.90;99.90
11894;DHT22;6006;49.696;8.662;2023-10-08T06:30:23;12.10;99.90
11894;DHT22;6006;49.696;8.662;2023-10-08T06:32:55;12.10;99.90
11894;DHT22;6006;49.696;8.662;2023-10-08T06:35:22;12.20;99.90
11894;DHT22;6006;49.696;8.662;2023-10-08T06:37:51;12.20;99.90
11894;DHT22;6006;49.696;8.662;2023-10-08T06:40:21;12.30;99.90
11894;DHT22;6006;49.696;8.662;2023-10-08T06:43:07;12.30;99.90
11894;DHT22;6006;49.696;8.662;2023-10-08T06:45:47;12.40;99.90
11894;DHT22;6006;49.696;8.662;2023-10-08T06:48:18;12.50;99.90
11894;DHT22;6006;49.696;8.662;2023-10-08T06:50:46;12.50;99.90
11894;DHT22;6006;49.696;8.662;2023-10-08T06:53:13;12.60;99.90
11894;DHT22;6006;49.696;8.662;2023-10-08T06:55:41;12.70;99.90
11894;DHT22;6006;49.696;8.662;2023-10-08T06:58:10;12.70;99.90
11894;DHT22;6006;49.696;8.662;2023-10-08T07:00:38;12.90;99.90
11894;DHT22;6006;49.696;8.662;2023-10-08T07:03:08;13.00;99.90
11894;DHT22;6006;49.696;8.662;2023-10-08T07:05:37;13.10;99.90
11894;DHT22;6006;49.696;8.662;2023-10-08T07:08:07;13.30;99.90
11894;DHT22;6006;49.696;8.662;2023-10-08T07:10:34;13.40;99.90
11894;DHT22;6006;49.696;8.662;2023-10-08T07:13:01;13.70;99.90
11894;DHT22;6006;49.696;8.662;2023-10-08T07:15:31;13.90;99.90
11894;DHT22;6006;49.696;8.662;2023-10-08T07:17:58;13.90;99.90
11894;DHT22;6006;49.696;8.662;2023-10-08T07:20:34;14.00;99.90
11894;DHT22;6006;49.696;8.662;2023-10-08T07:23:05;14.20;99.90
11894;DHT22;6006;49.696;8.662;2023-10-08T07:25:35;14.40;99.90
11894;DHT22;6006;49.696;8.662;2023-10-08T07:28:04;14.50;99.90
11894;DHT22;6006;49.696;8.662;2023-10-08T07:30:38;14.60;99.90
11894;DHT22;6006;49.696;8.662;2023-10-08T07:33:09;14.70;99.90
11894;DHT22;6006;49.696;8.662;2023-10-08T07:35:43;14.90;99.90
11894;DHT22;6006;49.696;8.662;2023-10-08T07:38:17;15.10;99.90
11894;DHT22;6006;49.696;8.662;2023-10-08T07:40:44;15.20;99.90
11894;DHT22;6006;49.696;8.662;2023-10-08T07:43:11;15.30;99.90
11894;DHT22;6006;49.696;8.662;2023-10-08T07:45:40;15.50;99.90
11894;DHT22;6006;49.696;8.662;2023-10-08T07:48:11;15.70;99.90
11894;DHT22;6006;49.696;8.662;2023-10-08T07:50:41;15.90;99.90
11894;DHT22;6006;49.696;8.662;2023-10-08T07:53:09;16.30;99.90
11894;DHT22;6006;49.696;8.662;2023-10-08T07:55:46;16.50;99.90
11894;DHT22;6006;49.696;8.662;2023-10-08T07:58:15;16.60;1.00
11894;DHT22;6006;49.696;8.662;2023-10-08T08:00:44;16.60;1.00
11894;DHT22;6006;49.696;8.662;2023-10-08T08:03:20;16.60;1.00
11894;DHT22;6006;49.696;8.662;2023-10-08T08:05:47;16.60;1.00
11894;DHT22;6006;49.696;8.662;2023-10-08T08:08:19;16.80;1.00
11894;DHT22;6006;49.696;8.662;2023-10-08T08:10:48;17.10;99.90
11894;DHT22;6006;49.696;8.662;2023-10-08T08:13:15;17.10;1.00
11894;DHT22;6006;49.696;8.662;2023-10-08T08:15:47;17.10;1.00
11894;DHT22;6006;49.696;8.662;2023-10-08T08:18:16;17.30;99.90
11894;DHT22;6006;49.696;8.662;2023-10-08T08:20:48;17.30;1.00
11894;DHT22;6006;49.696;8.662;2023-10-08T08:23:15;17.30;99.90
11894;DHT22;6006;49.696;8.662;2023-10-08T08:25:43;17.20;1.00
11894;DHT22;6006;49.696;8.662;2023-10-08T08:28:22;17.20;1.00
11894;DHT22;6006;49.696;8.662;2023-10-08T08:30:51;17.00;99.90
11894;DHT22;6006;49.696;8.662;2023-10-08T08:33:21;17.10;1.00
11894;DHT22;6006;49.696;8.662;2023-10-08T08:35:58;17.10;58.00
11894;DHT22;6006;49.696;8.662;2023-10-08T08:38:26;17.10;1.00
11894;DHT22;6006;49.696;8.662;2023-10-08T08:41:02;17.10;99.90
11894;DHT22;6006;49.696;8.662;2023-10-08T08:43:34;17.10;99.90
11894;DHT22;6006;49.696;8.662;2023-10-08T08:46:04;17.20;1.00
11894;DHT22;6006;49.696;8.662;2023-10-08T08:48:34;17.30;1.00
11894;DHT22;6006;49.696;8.662;2023-10-08T08:51:01;17.50;99.90
11894;DHT22;6006;49.696;8.662;2023-10-08T08:53:28;17.40;1.00
11894;DHT22;6006;49.696;8.662;2023-10-08T08:55:55;17.40;99.90
11894;DHT22;6006;49.696;8.662;2023-10-08T08:58:23;17.40;42.20
11894;DHT22;6006;49.696;8.662;2023-10-08T09:00:52;17.40;99.90
11894;DHT22;6006;49.696;8.662;2023-10-08T09:03:22;17.40;1.00
11894;DHT22;6006;49.696;8.662;2023-10-08T09:05:56;17.50;99.90
11894;DHT22;6006;49.696;8.662;2023-10-08T09:08:27;17.50;99.90
11894;DHT22;6006;49.696;8.662;2023-10-08T09:10:59;17.50;99.90
11894;DHT22;6006;49.696;8.662;2023-10-08T09:13:28;17.60;99.90
11894;DHT22;6006;49.696;8.662;2023-10-08T09:16:06;17.60;19.90
11894;DHT22;6006;49.696;8.662;2023-10-08T09:18:35;17.50;1.00
11894;DHT22;6006;49.696;8.662;2023-10-08T09:21:10;17.60;99.90
11894;DHT22;6006;49.696;8.662;2023-10-08T09:23:40;17.70;1.00
11894;DHT22;6006;49.696;8.662;2023-10-08T09:26:10;17.70;99.90
11894;DHT22;6006;49.696;8.662;2023-10-08T09:28:39;17.70;99.90
11894;DHT22;6006;49.696;8.662;2023-10-08T09:31:10;18.00;1.00
11894;DHT22;6006;49.696;8.662;2023-10-08T09:33:38;18.20;99.90
11894;DHT22;6006;49.696;8.662;2023-10-08T09:36:07;18.10;1.00
11894;DHT22;6006;49.696;8.662;2023-10-08T09:38:36;17.90;1.00
11894;DHT22;6006;49.696;8.662;2023-10-08T09:41:03;18.20;99.90
11894;DHT22;6006;49.696;8.662;2023-10-08T09:43:34;18.10;99.90
11894;DHT22;6006;49.696;8.662;2023-10-08T09:46:09;18.20;99.90
11894;DHT22;6006;49.696;8.662;2023-10-08T09:48:41;18.40;12.30
11894;DHT22;6006;49.696;8.662;2023-10-08T09:51:11;18.60;99.90
11894;DHT22;6006;49.696;8.662;2023-10-08T09:53:46;18.90;99.90
11894;DHT22;6006;49.696;8.662;2023-10-08T09:56:14;19.30;51.80
11894;DHT22;6006;49.696;8.662;2023-10-08T09:58:44;19.50;99.90
11894;DHT22;6006;49.696;8.662;2023-10-08T10:01:11;19.70;1.00
11894;DHT22;6006;49.696;8.662;2023-10-08T10:03:40;19.90;1.00
11894;DHT22;6006;49.696;8.662;2023-10-08T10:06:18;20.10;1.00
11894;DHT22;6006;49.696;8.662;2023-10-08T10:08:47;20.40;1.00
11894;DHT22;6006;49.696;8.662;2023-10-08T10:11:15;20.30;1.00
11894;DHT22;6006;49.696;8.662;2023-10-08T10:13:44;20.10;1.00
11894;DHT22;6006;49.696;8.662;2023-10-08T10:16:17;20.30;1.00
11894;DHT22;6006;49.696;8.662;2023-10-08T10:18:49;20.40;1.00
11894;DHT22;6006;49.696;8.662;2023-10-08T10:21:26;20.70;1.00
11894;DHT22;6006;49.696;8.662;2023-10-08T10:23:55;20.80;1.00
11894;DHT22;6006;49.696;8.662;2023-10-08T10:26:25;21.00;1.00
11894;DHT22;6006;49.696;8.662;2023-10-08T10:29:21;21.20;1.00
11894;DHT22;6006;49.696;8.662;2023-10-08T10:31:52;21.40;1.00
11894;DHT22;6006;49.696;8.662;2023-10-08T10:34:22;21.20;1.00
11894;DHT22;6006;49.696;8.662;2023-10-08T10:36:53;21.30;1.00
11894;DHT22;6006;49.696;8.662;2023-10-08T10:39:28;21.20;1.00
11894;DHT22;6006;49.696;8.662;2023-10-08T10:41:57;20.80;1.00
11894;DHT22;6006;49.696;8.662;2023-10-08T10:44:27;21.10;1.00
11894;DHT22;6006;49.696;8.662;2023-10-08T10:46:56;20.90;1.00
11894;DHT22;6006;49.696;8.662;2023-10-08T10:49:38;20.90;1.00
11894;DHT22;6006;49.696;8.662;2023-10-08T10:52:14;21.00;1.00
11894;DHT22;6006;49.696;8.662;2023-10-08T10:54:55;21.10;1.00
11894;DHT22;6006;49.696;8.662;2023-10-08T10:57:26;21.10;1.00
11894;DHT22;6006;49.696;8.662;2023-10-08T11:00:02;21.50;1.00
11894;DHT22;6006;49.696;8.662;2023-10-08T11:02:44;22.00;1.00
11894;DHT22;6006;49.696;8.662;2023-10-08T11:05:15;21.70;1.00
11894;DHT22;6006;49.696;8.662;2023-10-08T11:07:45;21.70;1.00
11894;DHT22;6006;49.696;8.662;2023-10-08T11:10:13;21.80;1.00
11894;DHT22;6006;49.696;8.662;2023-10-08T11:12:41;22.00;1.00
11894;DHT22;6006;49.696;8.662;2023-10-08T11:15:12;21.60;1.00
11894;DHT22;6006;49.696;8.662;2023-10-08T11:17:41;21.40;1.00
11894;DHT22;6006;49.696;8.662;2023-10-08T11:20:25;21.70;1.00
11894;DHT22;6006;49.696;8.662;2023-10-08T11:22:52;21.80;1.00
11894;DHT22;6006;49.696;8.662;2023-10-08T11:25:21;22.10;99.90
11894;DHT22;6006;49.696;8.662;2023-10-08T11:27:50;22.20;99.90
11894;DHT22;6006;49.696;8.662;2023-10-08T11:30:18;22.50;99.90
11894;DHT22;6006;49.696;8.662;2023-10-08T11:32:46;21.90;1.00
11894;DHT22;6006;49.696;8.662;2023-10-08T11:35:15;21.60;1.00
11894;DHT22;6006;49.696;8.662;2023-10-08T11:37:46;21.70;99.90
11894;DHT22;6006;49.696;8.662;2023-10-08T11:40:22;21.60;99.90
11894;DHT22;6006;49.696;8.662;2023-10-08T11:42:53;21.80;99.90
11894;DHT22;6006;49.696;8.662;2023-10-08T11:45:22;21.70;99.90
11894;DHT22;6006;49.696;8.662;2023-10-08T11:47:52;22.40;99.90
11894;DHT22;6006;49.696;8.662;2023-10-08T11:50:25;23.40;99.90
11894;DHT22;6006;49.696;8.662;2023-10-08T11:52:59;24.40;99.90
11894;DHT22;6006;49.696;8.662;2023-10-08T11:55:31;25.30;99.90
11894;DHT22;6006;49.696;8.662;2023-10-08T11:58:01;25.90;99.90
11894;DHT22;6006;49.696;8.662;2023-10-08T12:00:36;26.20;99.90
11894;DHT22;6006;49.696;8.662;2023-10-08T12:03:09;26.10;99.90
11894;DHT22;6006;49.696;8.662;2023-10-08T12:05:37;25.60;99.90
11894;DHT22;6006;49.696;8.662;2023-10-08T12:08:14;25.80;99.90
11894;DHT22;6006;49.696;8.662;2023-10-08T12:10:43;25.80;99.90
11894;DHT22;6006;49.696;8.662;2023-10-08T12:13:11;25.00;99.90
11894;DHT22;6006;49.696;8.662;2023-10-08T12:15:38;25.00;99.90
11894;DHT22;6006;49.696;8.662;2023-10-08T12:18:07;25.20;99.90
11894;DHT22;6006;49.696;8.662;2023-10-08T12:20:41;24.90;99.90
11894;DHT22;6006;49.696;8.662;2023-10-08T12:23:11;24.50;99.90
11894;DHT22;6006;49.696;8.662;2023-10-08T12:25:46;24.80;99.90
11894;DHT22;6006;49.696;8.662;2023-10-08T12:28:17;24.70;99.90
11894;DHT22;6006;49.696;8.662;2023-10-08T12:30:44;24.70;99.90
11894;DHT22;6006;49.696;8.662;2023-10-08T12:33:11;25.50;99.90
11894;DHT22;6006;49.696;8.662;2023-10-08T12:35:41;25.40;99.90
11894;DHT22;6006;49.696;8.662;2023-10-08T12:38:08;25.00;99.90
11894;DHT22;6006;49.696;8.662;2023-10-08T12:40:35;25.40;99.90
11894;DHT22;6006;49.696;8.662;2023-10-08T12:43:14;25.80;99.90
11894;DHT22;6006;49.696;8.662;2023-10-08T12:45:45;25.50;99.90
11894;DHT22;6006;49.696;8.662;2023-10-08T12:48:18;24.90;99.90
11894;DHT22;6006;49.696;8.662;2023-10-08T12:50:45;25.10;99.90
11894;DHT22;6006;49.696;8.662;2023-10-08T12:53:21;25.30;99.90
11894;DHT22;6006;49.696;8.662;2023-10-08T12:55:53;26.00;99.90
11894;DHT22;6006;49.696;8.662;2023-10-08T12:58:23;26.30;99.90
11894;DHT22;6006;49.696;8.662;2023-10-08T13:00:52;26.10;99.90
11894;DHT22;6006;49.696;8.662;2023-10-08T13:03:26;25.70;99.90
11894;DHT22;6006;49.696;8.662;2023-10-08T13:05:57;25.70;99.90
11894;DHT22;6006;49.696;8.662;2023-10-08T13:08:29;26.00;99.90
11894;DHT22;6006;49.696;8.662;2023-10-08T13:10:57;26.40;99.90
11894;DHT22;6006;49.696;8.662;2023-10-08T13:13:28;25.20;99.90
11894;DHT22;6006;49.696;8.662;2023-10-08T13:15:55;25.20;99.90
11894;DHT22;6006;49.696;8.662;2023-10-08T13:18:25;25.10;99.90
11894;DHT22;6006;49.696;8.662;2023-10-08T13:20:53;25.10;99.90
11894;DHT22;6006;49.696;8.662;2023-10-08T13:23:20;25.50;99.90
11894;DHT22;6006;49.696;8.662;2023-10-08T13:25:49;26.40;99.90
11894;DHT22;6006;49.696;8.662;2023-10-08T13:28:20;26.30;99.90
11894;DHT22;6006;49.696;8.662;2023-10-08T13:30:49;26.10;99.90
11894;DHT22;6006;49.696;8.662;2023-10-08T13:33:19;26.20;99.90
11894;DHT22;6006;49.696;8.662;2023-10-08T13:35:47;25.50;99.90
11894;DHT22;6006;49.696;8.662;2023-10-08T13:38:16;25.50;99.90
11894;DHT22;6006;49.696;8.662;2023-10-08T13:40:45;25.10;99.90
11894;DHT22;6006;49.696;8.662;2023-10-08T13:43:28;25.70;99.90
11894;DHT22;6006;49.696;8.662;2023-10-08T13:46:01;26.10;99.90
11894;DHT22;6006;49.696;8.662;2023-10-08T13:48:30;26.20;99.90
11894;DHT22;6006;49.696;8.662;2023-10-08T13:50:59;26.10;99.90
11894;DHT22;6006;49.696;8.662;2023-10-08T13:53:26;26.20;99.90
11894;DHT22;6006;49.696;8.662;2023-10-08T13:55:56;26.50;99.90
11894;DHT22;6006;49.696;8.662;2023-10-08T13:58:23;26.00;99.90
11894;DHT22;6006;49.696;8.662;2023-10-08T14:00:50;25.40;99.90
11894;DHT22;6006;49.696;8.662;2023-10-08T14:03:20;25.40;99.90
11894;DHT22;6006;49.696;8.662;2023-10-08T14:05:48;24.50;99.90
11894;DHT22;6006;49.696;8.662;2023-10-08T14:08:16;24.90;99.90
11894;DHT22;6006;49.696;8.662;2023-10-08T14:10:43;25.30;99.90
11894;DHT22;6006;49.696;8.662;2023-10-08T14:13:10;24.90;99.90
11894;DHT22;6006;49.696;8.662;2023-10-08T14:15:37;24.20;99.90
11894;DHT22;6006;49.696;8.662;2023-10-08T14:18:10;24.10;99.90
11894;DHT22;6006;49.696;8.662;2023-10-08T14:20:44;23.60;99.90
11894;DHT22;6006;49.696;8.662;2023-10-08T14:23:13;23.60;99.90
11894;DHT22;6006;49.696;8.662;2023-10-08T14:25:43;23.20;1.00
11894;DHT22;6006;49.696;8.662;2023-10-08T14:28:11;23.00;1.00
11894;DHT22;6006;49.696;8.662;2023-10-08T14:30:48;22.80;1.00
11894;DHT22;6006;49.696;8.662;2023-10-08T14:33:19;22.60;1.00
11894;DHT22;6006;49.696;8.662;2023-10-08T14:35:51;22.60;1.00
11894;DHT22;6006;49.696;8.662;2023-10-08T14:38:35;22.50;99.90
11894;DHT22;6006;49.696;8.662;2023-10-08T14:41:20;22.20;99.90
11894;DHT22;6006;49.696;8.662;2023-10-08T14:44:04;22.30;1.00
11894;DHT22;6006;49.696;8.662;2023-10-08T14:46:32;22.10;99.90
11894;DHT22;6006;49.696;8.662;2023-10-08T14:49:03;22.50;1.00
11894;DHT22;6006;49.696;8.662;2023-10-08T14:51:38;22.80;1.00
11894;DHT22;6006;49.696;8.662;2023-10-08T14:54:06;22.80;1.00
11894;DHT22;6006;49.696;8.662;2023-10-08T14:56:34;22.80;1.00
11894;DHT22;6006;49.696;8.662;2023-10-08T14:59:02;23.10;1.00
11894;DHT22;6006;49.696;8.662;2023-10-08T15:01:29;23.10;1.00
11894;DHT22;6006;49.696;8.662;2023-10-08T15:03:59;23.50;1.00
11894;DHT22;6006;49.696;8.662;2023-10-08T15:06:30;23.40;99.90
11894;DHT22;6006;49.696;8.662;2023-10-08T15:08:59;24.10;99.90
11894;DHT22;6006;49.696;8.662;2023-10-08T15:11:26;24.50;99.90
11894;DHT22;6006;49.696;8.662;2023-10-08T15:13:56;24.60;99.90
11894;DHT22;6006;49.696;8.662;2023-10-08T15:16:23;24.40;99.90
11894;DHT22;6006;49.696;8.662;2023-10-08T15:18:52;24.30;99.90
11894;DHT22;6006;49.696;8.662;2023-10-08T15:21:19;24.00;99.90
11894;DHT22;6006;49.696;8.662;2023-10-08T15:23:47;24.10;99.90
11894;DHT22;6006;49.696;8.662;2023-10-08T15:26:16;23.90;99.90
11894;DHT22;6006;49.696;8.662;2023-10-08T15:28:43;24.10;99.90
11894;DHT22;6006;49.696;8.662;2023-10-08T15:31:09;24.00;99.90
11894;DHT22;6006;49.696;8.662;2023-10-08T15:33:36;23.90;99.90
11894;DHT22;6006;49.696;8.662;2023-10-08T15:36:04;23.70;1.00
11894;DHT22;6006;49.696;8.662;2023-10-08T15:38:30;23.40;1.00
11894;DHT22;6006;49.696;8.662;2023-10-08T15:40:57;23.20;1.00
11894;DHT22;6006;49.696;8.662;2023-10-08T15:43:26;23.00;1.00
11894;DHT22;6006;49.696;8.662;2023-10-08T15:45:53;23.00;1.00
11894;DHT22;6006;49.696;8.662;2023-10-08T15:48:21;22.80;1.00
11894;DHT22;6006;49.696;8.662;2023-10-08T15:50:48;22.80;1.00
11894;DHT22;6006;49.696;8.662;2023-10-08T15:53:14;23.00;1.00
11894;DHT22;6006;49.696;8.662;2023-10-08T15:55:41;22.40;99.90
11894;DHT22;6006;49.696;8.662;2023-10-08T15:58:08;21.70;1.00
11894;DHT22;6006;49.696;8.662;2023-10-08T16:00:36;21.50;99.90
11894;DHT22;6006;49.696;8.662;2023-10-08T16:03:03;21.50;1.00
11894;DHT22;6006;49.696;8.662;2023-10-08T16:05:32;21.30;99.90
11894;DHT22;6006;49.696;8.662;2023-10-08T16:07:59;21.10;1.00
11894;DHT22;6006;49.696;8.662;2023-10-08T16:10:26;20.80;99.90
11894;DHT22;6006;49.696;8.662;2023-10-08T16:12:53;20.70;99.90
11894;DHT22;6006;49.696;8.662;2023-10-08T16:15:20;20.40;99.90
11894;DHT22;6006;49.696;8.662;2023-10-08T16:17:49;20.20;1.00